Bristol, New Hampshire
Current Conditions -  °F | °C
As of 9:35 PM on Wednesday 22 Oct 2014 (Local Time) from K1P1 Reporting Station
Overcast Overcast  
Wind Chill: 50°   Ceiling: 2700
Heat Index: 50°   Visibility: 10mi
Dew Point: 49°   Wind: 3mph
Humidity: 97%   Direction: 150°SSE
Pressure: 30.02"   Gusts: NA
Location:  43.6°N, 71.75°W
Report Text: K1P1 230135Z AUTO 15003KT 10SM OVC027 10/10 A3002 RMK AO2 LTG DSNT SE AND S T01000095
Loading
Personal Weather Stations






























Interactive Weather Map New forecast layout! Learn more

10-Day Weather Forecast

Advertisements
Track Severe Weather on mobile